createdAt,value
2022-11-20T00:01:08.349Z,100628.81
2022-11-20T00:03:36.376Z,100633.09
2022-11-20T00:06:05.561Z,100630.56
2022-11-20T00:08:33.559Z,100632.22
2022-11-20T00:11:04.999Z,100628.69
2022-11-20T00:13:33.182Z,100629.56
2022-11-20T00:16:02.260Z,100626.09
2022-11-20T00:18:31.907Z,100630.50
2022-11-20T00:21:03.970Z,100622.03
2022-11-20T00:23:32.268Z,100603.13
2022-11-20T00:26:03.591Z,100624.81
2022-11-20T00:28:31.617Z,100623.88
2022-11-20T00:31:02.825Z,100630.75
2022-11-20T00:33:32.293Z,100625.47
2022-11-20T00:36:04.739Z,100627.94
2022-11-20T00:38:32.882Z,100627.00
2022-11-20T00:41:02.073Z,100611.38
2022-11-20T00:43:30.749Z,100606.19
2022-11-20T00:45:59.793Z,100620.94
2022-11-20T00:48:28.394Z,100607.09
2022-11-20T00:50:58.255Z,100598.53
2022-11-20T00:53:27.100Z,100605.53
2022-11-20T00:55:56.427Z,100610.72
2022-11-20T00:58:25.480Z,100609.94
2022-11-20T01:00:53.543Z,100614.38
2022-11-20T01:03:26.671Z,100622.16
2022-11-20T01:05:55.095Z,100615.09
2022-11-20T01:08:24.141Z,100614.16
2022-11-20T01:10:52.050Z,100612.47
2022-11-20T01:13:39.684Z,100610.00
2022-11-20T01:16:08.872Z,100615.19
2022-11-20T01:18:37.221Z,100609.94
2022-11-20T01:21:07.313Z,100616.84
2022-11-20T01:23:38.517Z,100608.13
2022-11-20T01:26:08.337Z,100607.31
2022-11-20T01:28:36.495Z,100599.56
2022-11-20T01:31:13.206Z,100590.16
2022-11-20T01:33:42.052Z,100587.56
2022-11-20T01:36:14.357Z,100591.94
2022-11-20T01:38:44.292Z,100586.72
2022-11-20T01:41:34.527Z,100580.72
2022-11-20T01:44:02.309Z,100580.75
2022-11-20T01:46:30.567Z,100584.22
2022-11-20T01:49:04.519Z,100582.50
2022-11-20T01:51:40.667Z,100578.22
2022-11-20T01:54:14.905Z,100573.94
2022-11-20T01:56:46.305Z,100574.81
2022-11-20T01:59:18.102Z,100563.59
2022-11-20T02:01:46.280Z,100568.00
2022-11-20T02:04:15.374Z,100564.56
2022-11-20T02:06:48.222Z,100563.69
2022-11-20T02:09:18.253Z,100567.13
2022-11-20T02:11:46.192Z,100565.44
2022-11-20T02:14:13.182Z,100563.75
2022-11-20T02:16:46.459Z,100572.47
2022-11-20T02:19:24.118Z,100568.16
2022-11-20T02:22:02.240Z,100566.44
2022-11-20T02:24:31.655Z,100558.66
2022-11-20T02:27:02.464Z,100563.91
2022-11-20T02:29:36.258Z,100531.66
2022-11-20T02:32:04.934Z,100550.88
2022-11-20T02:34:33.323Z,100539.53
2022-11-20T02:37:01.913Z,100550.00
2022-11-20T02:39:31.202Z,100547.41
2022-11-20T02:41:59.097Z,100556.13
2022-11-20T02:44:27.204Z,100546.53
2022-11-20T02:46:54.972Z,100545.72
2022-11-20T02:49:23.170Z,100538.75
2022-11-20T02:51:51.294Z,100544.88
2022-11-20T02:54:19.118Z,100543.19
2022-11-20T02:56:48.350Z,100540.59
2022-11-20T02:59:16.265Z,100538.88
2022-11-20T03:01:44.086Z,100542.38
2022-11-20T03:04:12.072Z,100533.69
2022-11-20T03:06:39.834Z,100533.72
2022-11-20T03:09:08.203Z,100530.19
2022-11-20T03:11:36.116Z,100515.34
2022-11-20T03:14:05.892Z,100532.78
2022-11-20T03:16:34.073Z,100532.75
2022-11-20T03:19:02.747Z,100532.66
2022-11-20T03:21:30.830Z,100517.84
2022-11-20T03:23:58.786Z,100529.13
2022-11-20T03:26:28.137Z,100526.47
2022-11-20T03:28:57.751Z,100523.03
2022-11-20T03:31:29.183Z,100511.72
2022-11-20T03:33:58.204Z,100507.34
2022-11-20T03:36:27.141Z,100523.88
2022-11-20T03:38:55.906Z,100514.34
2022-11-20T03:41:26.263Z,100512.63
2022-11-20T03:43:56.020Z,100515.25
2022-11-20T03:46:24.934Z,100504.78
2022-11-20T03:48:54.440Z,100513.50
2022-11-20T03:51:24.465Z,100511.72
2022-11-20T03:53:54.512Z,100517.88
2022-11-20T03:56:25.573Z,100511.84
2022-11-20T03:58:53.643Z,100494.47
2022-11-20T04:01:23.881Z,100490.19
2022-11-20T04:03:53.898Z,100494.56
2022-11-20T04:06:25.228Z,100492.81
2022-11-20T04:08:54.097Z,100488.47
2022-11-20T04:11:25.295Z,100485.84
2022-11-20T04:13:55.242Z,100486.75
2022-11-20T04:16:24.115Z,100477.19
2022-11-20T04:18:54.875Z,100482.44
2022-11-20T04:21:25.009Z,100485.06
2022-11-20T04:23:53.919Z,100481.59
2022-11-20T04:26:23.531Z,100479.88
2022-11-20T04:28:51.870Z,100478.16
2022-11-20T04:31:21.821Z,100472.91
2022-11-20T04:33:50.050Z,100472.06
2022-11-20T04:36:19.965Z,100477.31
2022-11-20T04:38:56.714Z,100482.53
2022-11-20T04:41:27.394Z,100481.66
2022-11-20T04:44:00.482Z,100479.03
2022-11-20T04:46:29.524Z,100482.53
2022-11-20T04:49:00.067Z,100473.84
2022-11-20T04:51:28.062Z,100486.91
2022-11-20T04:53:57.431Z,100487.78
2022-11-20T04:56:25.564Z,100487.78
2022-11-20T04:58:53.547Z,100486.06
2022-11-20T05:01:23.897Z,100481.69
2022-11-20T05:03:52.474Z,100483.44
2022-11-20T05:06:25.569Z,100477.38
2022-11-20T05:08:54.648Z,100479.09
2022-11-20T05:11:24.105Z,100485.19
2022-11-20T05:13:53.572Z,100477.38
2022-11-20T05:16:23.292Z,100476.50
2022-11-20T05:18:52.243Z,100473.88
2022-11-20T05:21:20.566Z,100473.88
2022-11-20T05:23:48.941Z,100470.41
2022-11-20T05:26:20.042Z,100470.41
2022-11-20T05:28:49.488Z,100460.84
2022-11-20T05:31:25.064Z,100463.44
2022-11-20T05:33:55.190Z,100460.81
2022-11-20T05:36:23.261Z,100463.44
2022-11-20T05:38:52.405Z,100462.56
2022-11-20T05:41:22.738Z,100456.50
2022-11-20T05:43:52.742Z,100449.53
2022-11-20T05:46:28.346Z,100443.44
2022-11-20T05:48:57.828Z,100451.28
2022-11-20T05:51:26.889Z,100444.28
2022-11-20T05:53:54.756Z,100448.63
2022-11-20T05:56:23.210Z,100454.75
2022-11-20T05:58:52.517Z,100441.69
2022-11-20T06:01:23.639Z,100435.59
2022-11-20T06:03:52.493Z,100443.41
2022-11-20T06:06:21.709Z,100440.81
2022-11-20T06:08:50.276Z,100450.38
2022-11-20T06:11:18.956Z,100448.63
2022-11-20T06:13:47.431Z,100443.44
2022-11-20T06:16:18.379Z,100437.34
2022-11-20T06:18:48.409Z,100437.31
2022-11-20T06:21:18.645Z,100439.94
2022-11-20T06:23:46.866Z,100451.22
2022-11-20T06:26:16.742Z,100445.16
2022-11-20T06:28:44.868Z,100451.22
2022-11-20T06:31:14.286Z,100439.06
2022-11-20T06:33:44.265Z,100436.47
2022-11-20T06:36:13.762Z,100438.22
2022-11-20T06:38:42.021Z,100426.03
2022-11-20T06:41:13.444Z,100439.94
2022-11-20T06:43:41.536Z,100433.84
2022-11-20T06:46:11.889Z,100436.47
2022-11-20T06:48:39.869Z,100439.06
2022-11-20T06:51:10.155Z,100440.78
2022-11-20T06:53:38.500Z,100437.31
2022-11-20T06:56:07.635Z,100439.94
2022-11-20T06:58:37.398Z,100437.31
2022-11-20T07:01:08.326Z,100429.47
2022-11-20T07:03:36.734Z,100415.56
2022-11-20T07:06:05.228Z,100423.41
2022-11-20T07:08:35.002Z,100424.28
2022-11-20T07:11:05.367Z,100425.16
2022-11-20T07:13:34.468Z,100416.44
2022-11-20T07:16:04.402Z,100415.56
2022-11-20T07:18:32.625Z,100419.06
2022-11-20T07:21:02.785Z,100422.53
2022-11-20T07:23:30.782Z,100427.75
2022-11-20T07:26:00.262Z,100425.16
2022-11-20T07:28:28.169Z,100418.19
2022-11-20T07:30:56.115Z,100422.56
2022-11-20T07:33:23.772Z,100421.69
2022-11-20T07:35:51.713Z,100426.91
2022-11-20T07:38:19.374Z,100426.91
2022-11-20T07:40:47.405Z,100425.13
2022-11-20T07:43:16.707Z,100432.97
2022-11-20T07:45:44.618Z,100426.88
2022-11-20T07:48:12.519Z,100432.13
2022-11-20T07:50:40.248Z,100433.81
2022-11-20T07:53:08.387Z,100428.59
2022-11-20T07:55:36.287Z,100432.06
2022-11-20T07:58:04.242Z,100425.09
2022-11-20T08:00:33.633Z,100428.56
2022-11-20T08:03:04.333Z,100440.78
2022-11-20T08:05:33.422Z,100435.53
2022-11-20T08:08:01.472Z,100416.38
2022-11-20T08:10:29.338Z,100419.88
2022-11-20T08:13:14.499Z,100432.03
2022-11-20T08:15:43.777Z,100424.16
2022-11-20T08:18:30.792Z,100425.94
2022-11-20T08:20:59.621Z,100426.78
2022-11-20T08:23:27.584Z,100428.53
2022-11-20T08:25:55.454Z,100431.16
2022-11-20T08:28:23.174Z,100438.09
2022-11-20T08:30:52.605Z,100437.25
2022-11-20T08:33:20.614Z,100420.69
2022-11-20T08:35:48.623Z,100439.78
2022-11-20T08:38:16.605Z,100431.09
2022-11-20T08:41:06.205Z,100423.19
2022-11-20T08:43:34.475Z,100419.66
2022-11-20T08:46:03.740Z,100427.50
2022-11-20T08:48:31.651Z,100420.47
2022-11-20T08:51:00.452Z,100422.94
2022-11-20T08:53:28.949Z,100429.00
2022-11-20T08:55:58.348Z,100433.41
2022-11-20T08:58:26.629Z,100433.47
2022-11-20T09:00:54.932Z,100425.66
2022-11-20T09:03:28.592Z,100431.75
2022-11-20T09:06:01.117Z,100432.53
2022-11-20T09:08:29.867Z,100427.31
2022-11-20T09:10:59.087Z,100427.19
2022-11-20T09:13:28.500Z,100435.03
2022-11-20T09:15:57.146Z,100425.50
2022-11-20T09:18:27.040Z,100412.44
2022-11-20T09:20:58.873Z,100402.03
2022-11-20T09:23:27.198Z,100408.97
2022-11-20T09:26:00.502Z,100403.59
2022-11-20T09:28:28.522Z,100409.50
2022-11-20T09:30:56.500Z,100407.59
2022-11-20T09:33:28.746Z,100411.88
2022-11-20T09:35:58.661Z,100416.00
2022-11-20T09:38:26.929Z,100422.38
2022-11-20T09:41:00.445Z,100416.84
2022-11-20T09:43:42.469Z,100412.69
2022-11-20T09:46:19.868Z,100418.38
2022-11-20T09:49:04.116Z,100403.94
2022-11-20T09:51:41.268Z,100401.81
2022-11-20T09:54:18.170Z,100408.75
2022-11-20T09:56:51.549Z,100398.41
2022-11-20T09:59:36.260Z,100401.03
2022-11-20T10:02:14.866Z,100406.22
2022-11-20T10:04:49.325Z,100397.22
2022-11-20T10:07:32.264Z,100402.88
2022-11-20T10:10:01.728Z,100407.56
2022-11-20T10:12:44.070Z,100405.66
2022-11-20T10:15:24.539Z,100413.22
2022-11-20T10:18:17.666Z,100405.53
2022-11-20T10:20:55.935Z,100401.63
2022-11-20T10:23:36.475Z,100393.13
2022-11-20T10:26:06.194Z,100396.56
2022-11-20T10:28:57.226Z,100392.38
2022-11-20T10:31:33.938Z,100394.53
2022-11-20T10:34:12.601Z,100389.19
2022-11-20T10:36:48.972Z,100388.25
2022-11-20T10:39:22.022Z,100385.97
2022-11-20T10:41:54.195Z,100378.06
2022-11-20T10:44:38.040Z,100386.56
2022-11-20T10:50:22.202Z,100383.22
2022-11-20T10:53:01.953Z,100383.00
2022-11-20T10:55:35.345Z,100372.38
2022-11-20T10:58:10.575Z,100379.38
2022-11-20T11:00:38.681Z,100358.63
2022-11-20T11:03:24.512Z,100369.28
2022-11-20T11:05:56.897Z,100368.63
2022-11-20T11:08:31.040Z,100373.00
2022-11-20T11:11:03.131Z,100359.06
2022-11-20T11:13:32.494Z,100347.19
2022-11-20T11:16:00.618Z,100357.09
2022-11-20T11:18:30.884Z,100358.03
2022-11-20T11:21:01.414Z,100360.91
2022-11-20T11:23:35.575Z,100351.16
2022-11-20T11:26:04.900Z,100350.19
2022-11-20T11:28:33.445Z,100349.28
2022-11-20T11:31:01.650Z,100339.91
2022-11-20T11:33:31.137Z,100347.81
2022-11-20T11:36:01.586Z,100345.25
2022-11-20T11:38:35.154Z,100351.47
2022-11-20T11:41:04.256Z,100345.31
2022-11-20T11:43:52.533Z,100348.50
2022-11-20T11:46:33.520Z,100343.28
2022-11-20T11:49:03.337Z,100353.78
2022-11-20T11:51:38.021Z,100359.13
2022-11-20T11:54:16.253Z,100356.97
2022-11-20T11:56:46.011Z,100348.47
2022-11-20T11:59:25.708Z,100340.97
2022-11-20T12:01:58.421Z,100336.69
2022-11-20T12:04:41.629Z,100337.88
2022-11-20T12:07:44.432Z,100304.88
2022-11-20T12:10:05.581Z,100313.59
2022-11-20T12:12:38.633Z,100320.19
2022-11-20T12:15:11.764Z,100330.00
2022-11-20T12:17:39.704Z,100322.72
2022-11-20T12:20:15.055Z,100327.06
2022-11-20T12:22:52.439Z,100324.66
2022-11-20T12:25:26.882Z,100328.38
2022-11-20T12:28:34.542Z,100284.28
2022-11-20T12:31:18.607Z,100313.53
2022-11-20T12:34:11.147Z,100313.38
2022-11-20T12:36:47.455Z,100299.78
2022-11-20T12:39:42.874Z,100307.16
2022-11-20T12:42:46.027Z,100301.34
2022-11-20T12:45:33.828Z,100307.16
2022-11-20T12:48:18.811Z,100308.69
2022-11-20T12:53:53.675Z,100306.09
2022-11-20T12:56:36.273Z,100306.03
2022-11-20T12:59:24.932Z,100299.56
2022-11-20T13:01:58.808Z,100291.66
2022-11-20T13:04:41.293Z,100253.97
2022-11-20T13:07:13.725Z,100299.19
2022-11-20T13:09:44.627Z,100301.69
2022-11-20T13:12:17.995Z,100305.53
2022-11-20T13:14:53.805Z,100295.63
2022-11-20T13:17:26.669Z,100297.00
2022-11-20T13:19:56.916Z,100304.38
2022-11-20T13:22:28.558Z,100307.16
2022-11-20T13:24:56.887Z,100303.13
2022-11-20T13:27:25.823Z,100310.13
2022-11-20T13:30:18.293Z,100297.88
2022-11-20T13:32:54.953Z,100299.53
2022-11-20T13:35:32.363Z,100288.31
2022-11-20T13:38:07.778Z,100266.66
2022-11-20T13:40:38.279Z,100283.88
2022-11-20T13:43:17.919Z,100287.31
2022-11-20T13:46:02.160Z,100275.00
2022-11-20T13:48:33.983Z,100280.19
2022-11-20T13:51:14.705Z,100280.97
2022-11-20T13:54:20.333Z,100285.56
2022-11-20T13:57:03.983Z,100261.00
2022-11-20T13:59:46.379Z,100278.31
2022-11-20T14:02:19.127Z,100284.50
2022-11-20T14:04:49.187Z,100281.25
2022-11-20T14:07:18.688Z,100287.34
2022-11-20T14:09:53.584Z,100276.16
2022-11-20T14:12:23.901Z,100284.09
2022-11-20T14:14:53.942Z,100287.50
2022-11-20T14:17:26.195Z,100278.69
2022-11-20T14:19:55.713Z,100260.56
2022-11-20T14:22:25.000Z,100274.44
2022-11-20T14:25:04.442Z,100271.84
2022-11-20T14:27:36.194Z,100266.59
2022-11-20T14:30:05.231Z,100264.84
2022-11-20T14:32:37.505Z,100255.31
2022-11-20T14:35:10.882Z,100254.34
2022-11-20T14:37:42.156Z,100254.34
2022-11-20T14:40:26.141Z,100252.56
2022-11-20T14:42:54.456Z,100242.19
2022-11-20T14:45:23.850Z,100236.22
2022-11-20T14:47:54.215Z,100242.41
2022-11-20T14:50:25.257Z,100242.34
2022-11-20T14:52:55.542Z,100229.25
2022-11-20T14:55:31.898Z,100232.91
2022-11-20T14:58:01.930Z,100233.78
2022-11-20T15:00:31.665Z,100233.00
2022-11-20T15:03:01.124Z,100228.63
2022-11-20T15:05:47.665Z,100230.63
2022-11-20T15:08:17.161Z,100237.50
2022-11-20T15:10:48.440Z,100235.75
2022-11-20T15:13:20.048Z,100235.75
2022-11-20T15:15:50.238Z,100234.78
2022-11-20T15:18:23.513Z,100224.38
2022-11-20T15:20:52.681Z,100226.16
2022-11-20T15:23:21.338Z,100218.28
2022-11-20T15:25:50.646Z,100208.75
2022-11-20T15:28:21.330Z,100218.28
2022-11-20T15:30:50.848Z,100214.00
2022-11-20T15:33:20.235Z,100213.16
2022-11-20T15:35:48.165Z,100202.66
2022-11-20T15:38:16.096Z,100205.50
2022-11-20T15:40:44.052Z,100201.09
2022-11-20T15:43:13.813Z,100200.31
2022-11-20T15:45:44.752Z,100198.59
2022-11-20T15:48:16.804Z,100196.91
2022-11-20T15:50:54.773Z,100188.38
2022-11-20T15:53:22.942Z,100181.47
2022-11-20T15:55:50.966Z,100184.22
2022-11-20T15:58:18.964Z,100172.19
2022-11-20T16:00:47.369Z,100175.00
2022-11-20T16:03:17.023Z,100155.22
2022-11-20T16:05:45.513Z,100170.13
2022-11-20T16:08:15.004Z,100167.66
2022-11-20T16:10:43.315Z,100173.81
2022-11-20T16:13:32.500Z,100168.66
2022-11-20T16:16:05.240Z,100140.03
2022-11-20T16:18:33.764Z,100139.22
2022-11-20T16:21:03.591Z,100141.00
2022-11-20T16:23:34.075Z,100144.56
2022-11-20T16:26:11.206Z,100142.91
2022-11-20T16:28:39.191Z,100145.56
2022-11-20T16:31:15.290Z,100146.44
2022-11-20T16:33:44.307Z,100132.63
2022-11-20T16:36:14.786Z,100140.44
2022-11-20T16:38:44.095Z,100137.94
2022-11-20T16:41:14.447Z,100123.19
2022-11-20T16:43:50.071Z,100142.28
2022-11-20T16:46:19.928Z,100134.38
2022-11-20T16:48:54.769Z,100132.59
2022-11-20T16:51:24.118Z,100143.91
2022-11-20T16:53:55.793Z,100136.00
2022-11-20T16:56:25.477Z,100129.88
2022-11-20T16:58:56.008Z,100129.88
2022-11-20T17:01:25.397Z,100124.56
2022-11-20T17:03:58.386Z,100129.75
2022-11-20T17:06:27.970Z,100128.00
2022-11-20T17:08:58.866Z,100121.00
2022-11-20T17:11:27.500Z,100121.88
2022-11-20T17:13:56.352Z,100124.56
2022-11-20T17:16:25.698Z,100125.47
2022-11-20T17:19:01.298Z,100126.38
2022-11-20T17:21:30.818Z,100119.34
2022-11-20T17:24:01.547Z,100122.09
2022-11-20T17:26:29.578Z,100116.00
2022-11-20T17:28:59.816Z,100106.41
2022-11-20T17:31:29.592Z,100080.47
2022-11-20T17:33:59.677Z,100104.81
2022-11-20T17:36:28.831Z,100098.56
2022-11-20T17:38:59.111Z,100110.91
2022-11-20T17:41:29.928Z,100099.53
2022-11-20T17:44:02.198Z,100095.22
2022-11-20T17:46:33.380Z,100097.75
2022-11-20T17:49:01.824Z,100096.88
2022-11-20T17:51:31.644Z,100070.81
2022-11-20T17:54:01.869Z,100088.03
2022-11-20T17:56:51.739Z,100085.34
2022-11-20T17:59:20.398Z,100075.78
2022-11-20T18:01:48.693Z,100075.03
2022-11-20T18:04:17.007Z,100084.50
2022-11-20T18:06:45.296Z,100075.78
2022-11-20T18:09:13.483Z,100066.28
2022-11-20T18:11:43.967Z,100073.09
2022-11-20T18:14:32.344Z,100070.47
2022-11-20T18:17:02.588Z,100056.53
2022-11-20T18:19:37.634Z,100060.13
2022-11-20T18:22:09.366Z,100054.81
2022-11-20T18:24:39.331Z,100047.84
2022-11-20T18:27:10.072Z,100053.88
2022-11-20T18:29:38.002Z,100047.75
2022-11-20T18:32:06.603Z,100054.81
2022-11-20T18:34:34.554Z,100048.78
2022-11-20T18:37:02.498Z,100049.63
2022-11-20T18:39:30.425Z,100034.97
2022-11-20T18:42:16.040Z,100035.72
2022-11-20T18:44:54.944Z,100040.94
2022-11-20T18:47:24.954Z,100034.75
2022-11-20T18:49:55.247Z,100038.22
2022-11-20T18:52:25.829Z,100033.00
2022-11-20T18:54:54.269Z,100017.41
2022-11-20T18:57:24.123Z,100020.78
2022-11-20T18:59:54.595Z,100025.16
2022-11-20T19:02:23.070Z,100015.63
2022-11-20T19:04:51.081Z,100016.41
2022-11-20T19:07:19.288Z,100005.16
2022-11-20T19:09:50.833Z,99988.69
2022-11-20T19:12:18.993Z,99987.94
2022-11-20T19:14:47.008Z,99996.56
2022-11-20T19:17:17.615Z,99987.75
2022-11-20T19:19:49.640Z,99969.59
2022-11-20T19:22:17.631Z,99988.63
2022-11-20T19:24:45.876Z,99987.91
2022-11-20T19:27:14.989Z,99986.88
2022-11-20T19:29:42.964Z,99979.94
2022-11-20T19:32:13.548Z,99980.75
2022-11-20T19:34:43.636Z,99983.38
2022-11-20T19:37:11.838Z,99986.84
2022-11-20T19:39:39.780Z,99987.81
2022-11-20T19:42:07.706Z,99987.91
2022-11-20T19:44:39.377Z,99961.06
2022-11-20T19:47:13.053Z,99982.44
2022-11-20T19:49:43.751Z,99985.19
2022-11-20T19:52:11.773Z,99983.22
2022-11-20T19:54:39.776Z,99986.66
2022-11-20T19:57:07.900Z,99974.59
2022-11-20T19:59:35.868Z,99973.69
2022-11-20T20:02:04.226Z,99969.31
2022-11-20T20:04:32.562Z,99971.19
2022-11-20T20:07:03.864Z,99960.72
2022-11-20T20:09:34.190Z,99950.34
2022-11-20T20:12:02.133Z,99938.28
2022-11-20T20:14:30.935Z,99953.81
2022-11-20T20:16:58.874Z,99949.47
2022-11-20T20:19:27.261Z,99940.66
2022-11-20T20:21:55.219Z,99935.59
2022-11-20T20:24:24.599Z,99931.94
2022-11-20T20:26:57.851Z,99930.28
2022-11-20T20:29:26.566Z,99931.06
2022-11-20T20:31:54.634Z,99928.56
2022-11-20T20:34:22.950Z,99925.03
2022-11-20T20:36:50.868Z,99919.81
2022-11-20T20:39:19.688Z,99927.53
2022-11-20T20:41:48.984Z,99929.28
2022-11-20T20:44:34.615Z,99924.09
2022-11-20T20:47:05.367Z,99920.59
2022-11-20T20:49:35.445Z,99917.13
2022-11-20T20:52:03.544Z,99909.25
2022-11-20T20:54:34.312Z,99905.00
2022-11-20T20:57:05.219Z,99899.66
2022-11-20T20:59:36.163Z,99875.56
2022-11-20T21:02:04.189Z,99895.47
2022-11-20T21:04:32.198Z,99902.38
2022-11-20T21:07:00.390Z,99901.47
2022-11-20T21:09:28.370Z,99908.34
2022-11-20T21:11:56.507Z,99893.47
2022-11-20T21:14:25.996Z,99885.78
2022-11-20T21:16:54.239Z,99873.41
2022-11-20T21:19:22.164Z,99872.56
2022-11-20T21:22:03.140Z,99871.56
2022-11-20T21:24:34.753Z,99861.09
2022-11-20T21:27:04.150Z,99852.34
2022-11-20T21:29:35.578Z,99833.41
2022-11-20T21:32:05.610Z,99845.34
2022-11-20T21:34:35.237Z,99840.25
2022-11-20T21:37:03.191Z,99844.50
2022-11-20T21:39:31.359Z,99841.03
2022-11-20T21:42:00.828Z,99847.13
2022-11-20T21:44:31.283Z,99836.66
2022-11-20T21:47:01.187Z,99835.78
2022-11-20T21:49:29.175Z,99826.28
2022-11-20T21:51:57.111Z,99802.09
2022-11-20T21:54:25.381Z,99815.03
2022-11-20T21:56:53.489Z,99821.25
2022-11-20T21:59:22.115Z,99813.22
2022-11-20T22:01:50.665Z,99814.88
2022-11-20T22:04:21.449Z,99813.03
2022-11-20T22:06:49.510Z,99813.97
2022-11-20T22:09:17.645Z,99808.63
2022-11-20T22:11:45.634Z,99805.13
2022-11-20T22:14:22.135Z,99798.28
2022-11-20T22:16:51.646Z,99800.13
2022-11-20T22:19:22.347Z,99804.31
2022-11-20T22:21:51.644Z,99793.91
2022-11-20T22:24:21.820Z,99794.66
2022-11-20T22:26:50.311Z,99799.81
2022-11-20T22:29:20.803Z,99794.66
2022-11-20T22:31:49.213Z,99795.47
2022-11-20T22:34:17.609Z,99799.78
2022-11-20T22:36:49.590Z,99796.31
2022-11-20T22:39:17.574Z,99791.88
2022-11-20T22:41:45.511Z,99792.91
2022-11-20T22:44:17.124Z,99802.44
2022-11-20T22:46:47.763Z,99794.56
2022-11-20T22:49:15.712Z,99791.06
2022-11-20T22:51:43.674Z,99787.72
2022-11-20T22:54:13.701Z,99799.88
2022-11-20T22:56:41.933Z,99790.44
2022-11-20T22:59:10.059Z,99796.44
2022-11-20T23:01:38.862Z,99801.56
2022-11-20T23:04:09.034Z,99798.06
2022-11-20T23:06:37.277Z,99793.81
2022-11-20T23:09:06.198Z,99802.63
2022-11-20T23:11:38.544Z,99807.56
2022-11-20T23:14:08.145Z,99792.81
2022-11-20T23:16:36.623Z,99797.16
2022-11-20T23:19:06.876Z,99797.06
2022-11-20T23:21:35.506Z,99797.97
2022-11-20T23:24:04.029Z,99792.63
2022-11-20T23:26:38.377Z,99789.00
2022-11-20T23:29:07.299Z,99787.38
2022-11-20T23:31:36.818Z,99789.13
2022-11-20T23:34:07.171Z,99790.75
2022-11-20T23:36:35.074Z,99781.22
2022-11-20T23:39:03.026Z,99780.28
2022-11-20T23:41:31.006Z,99788.97
2022-11-20T23:44:00.297Z,99786.34
2022-11-20T23:46:28.237Z,99786.38
2022-11-20T23:48:56.127Z,99784.59
2022-11-20T23:51:24.096Z,99771.56
2022-11-20T23:53:52.035Z,99768.38
2022-11-20T23:56:23.071Z,99778.72
2022-11-20T23:58:51.115Z,99769.88
